sensor_id;sensor_type;location;lat;lon;timestamp;temperature;humidity
13464;DHT22;6804;48.774;9.174;2024-03-22T00:00:48;12.90;99.90
13464;DHT22;6804;48.774;9.174;2024-03-22T00:03:20;12.80;99.90
13464;DHT22;6804;48.774;9.174;2024-03-22T00:06:07;12.70;99.90
13464;DHT22;6804;48.774;9.174;2024-03-22T00:08:36;12.60;99.90
13464;DHT22;6804;48.774;9.174;2024-03-22T00:11:02;12.60;99.90
13464;DHT22;6804;48.774;9.174;2024-03-22T00:13:30;12.60;99.90
13464;DHT22;6804;48.774;9.174;2024-03-22T00:16:03;12.50;99.90
13464;DHT22;6804;48.774;9.174;2024-03-22T00:18:35;12.60;99.90
13464;DHT22;6804;48.774;9.174;2024-03-22T00:21:05;12.60;99.90
13464;DHT22;6804;48.774;9.174;2024-03-22T00:23:36;12.60;99.90
13464;DHT22;6804;48.774;9.174;2024-03-22T00:26:04;12.60;99.90
13464;DHT22;6804;48.774;9.174;2024-03-22T00:28:34;12.60;99.90
13464;DHT22;6804;48.774;9.174;2024-03-22T00:31:02;12.50;99.90
13464;DHT22;6804;48.774;9.174;2024-03-22T00:33:32;12.50;99.90
13464;DHT22;6804;48.774;9.174;2024-03-22T00:35:59;12.50;99.90
13464;DHT22;6804;48.774;9.174;2024-03-22T00:38:26;12.50;99.90
13464;DHT22;6804;48.774;9.174;2024-03-22T00:40:53;12.40;99.90
13464;DHT22;6804;48.774;9.174;2024-03-22T00:43:26;12.30;99.90
13464;DHT22;6804;48.774;9.174;2024-03-22T00:45:53;12.20;99.90
13464;DHT22;6804;48.774;9.174;2024-03-22T00:48:23;12.10;99.90
13464;DHT22;6804;48.774;9.174;2024-03-22T00:50:53;11.90;99.90
13464;DHT22;6804;48.774;9.174;2024-03-22T00:53:27;11.90;99.90
13464;DHT22;6804;48.774;9.174;2024-03-22T00:55:54;11.80;99.90
13464;DHT22;6804;48.774;9.174;2024-03-22T00:58:23;11.80;99.90
13464;DHT22;6804;48.774;9.174;2024-03-22T01:00:49;11.80;99.90
13464;DHT22;6804;48.774;9.174;2024-03-22T01:03:17;11.70;99.90
13464;DHT22;6804;48.774;9.174;2024-03-22T01:05:46;11.70;99.90
13464;DHT22;6804;48.774;9.174;2024-03-22T01:08:18;11.80;99.90
13464;DHT22;6804;48.774;9.174;2024-03-22T01:10:44;11.80;99.90
13464;DHT22;6804;48.774;9.174;2024-03-22T01:13:16;11.70;99.90
13464;DHT22;6804;48.774;9.174;2024-03-22T01:15:43;11.70;99.90
13464;DHT22;6804;48.774;9.174;2024-03-22T01:18:13;11.60;99.90
13464;DHT22;6804;48.774;9.174;2024-03-22T01:20:39;11.60;99.90
13464;DHT22;6804;48.774;9.174;2024-03-22T01:23:09;11.60;99.90
13464;DHT22;6804;48.774;9.174;2024-03-22T01:25:39;11.50;99.90
13464;DHT22;6804;48.774;9.174;2024-03-22T01:28:06;11.50;99.90
13464;DHT22;6804;48.774;9.174;2024-03-22T01:30:33;11.50;99.90
13464;DHT22;6804;48.774;9.174;2024-03-22T01:33:03;11.40;99.90
13464;DHT22;6804;48.774;9.174;2024-03-22T01:35:29;11.40;99.90
13464;DHT22;6804;48.774;9.174;2024-03-22T01:37:57;11.40;99.90
13464;DHT22;6804;48.774;9.174;2024-03-22T01:40:26;11.50;99.90
13464;DHT22;6804;48.774;9.174;2024-03-22T01:42:57;11.50;99.90
13464;DHT22;6804;48.774;9.174;2024-03-22T01:45:32;11.40;99.90
13464;DHT22;6804;48.774;9.174;2024-03-22T01:48:00;11.30;99.90
13464;DHT22;6804;48.774;9.174;2024-03-22T01:50:28;11.20;99.90
13464;DHT22;6804;48.774;9.174;2024-03-22T01:52:58;11.10;99.90
13464;DHT22;6804;48.774;9.174;2024-03-22T01:55:25;11.00;99.90
13464;DHT22;6804;48.774;9.174;2024-03-22T01:57:59;10.90;99.90
13464;DHT22;6804;48.774;9.174;2024-03-22T02:00:27;10.80;99.90
13464;DHT22;6804;48.774;9.174;2024-03-22T02:02:55;10.90;99.90
13464;DHT22;6804;48.774;9.174;2024-03-22T02:05:24;10.90;99.90
13464;DHT22;6804;48.774;9.174;2024-03-22T02:07:52;10.90;99.90
13464;DHT22;6804;48.774;9.174;2024-03-22T02:10:19;10.90;99.90
13464;DHT22;6804;48.774;9.174;2024-03-22T02:12:47;10.80;99.90
13464;DHT22;6804;48.774;9.174;2024-03-22T02:15:18;10.90;99.90
13464;DHT22;6804;48.774;9.174;2024-03-22T02:17:47;10.90;99.90
13464;DHT22;6804;48.774;9.174;2024-03-22T02:20:15;10.90;99.90
13464;DHT22;6804;48.774;9.174;2024-03-22T02:22:43;11.00;99.90
13464;DHT22;6804;48.774;9.174;2024-03-22T02:25:12;11.00;99.90
13464;DHT22;6804;48.774;9.174;2024-03-22T02:27:40;11.00;99.90
13464;DHT22;6804;48.774;9.174;2024-03-22T02:30:08;10.90;99.90
13464;DHT22;6804;48.774;9.174;2024-03-22T02:32:38;11.00;99.90
13464;DHT22;6804;48.774;9.174;2024-03-22T02:35:07;10.90;99.90
13464;DHT22;6804;48.774;9.174;2024-03-22T02:37:36;10.80;99.90
13464;DHT22;6804;48.774;9.174;2024-03-22T02:40:23;10.70;99.90
13464;DHT22;6804;48.774;9.174;2024-03-22T02:42:51;10.70;99.90
13464;DHT22;6804;48.774;9.174;2024-03-22T02:45:19;10.60;99.90
13464;DHT22;6804;48.774;9.174;2024-03-22T02:47:47;10.60;99.90
13464;DHT22;6804;48.774;9.174;2024-03-22T02:50:13;10.60;99.90
13464;DHT22;6804;48.774;9.174;2024-03-22T02:52:41;10.60;99.90
13464;DHT22;6804;48.774;9.174;2024-03-22T02:55:09;10.50;99.90
13464;DHT22;6804;48.774;9.174;2024-03-22T02:57:42;10.60;99.90
13464;DHT22;6804;48.774;9.174;2024-03-22T03:00:11;10.60;99.90
13464;DHT22;6804;48.774;9.174;2024-03-22T03:02:39;10.70;99.90
13464;DHT22;6804;48.774;9.174;2024-03-22T03:05:08;10.70;99.90
13464;DHT22;6804;48.774;9.174;2024-03-22T03:07:37;10.70;99.90
13464;DHT22;6804;48.774;9.174;2024-03-22T03:10:04;10.60;99.90
13464;DHT22;6804;48.774;9.174;2024-03-22T03:12:33;10.70;99.90
13464;DHT22;6804;48.774;9.174;2024-03-22T03:15:01;10.70;99.90
13464;DHT22;6804;48.774;9.174;2024-03-22T03:17:30;10.60;99.90
13464;DHT22;6804;48.774;9.174;2024-03-22T03:20:15;10.50;99.90
13464;DHT22;6804;48.774;9.174;2024-03-22T03:22:43;10.60;99.90
13464;DHT22;6804;48.774;9.174;2024-03-22T03:25:09;10.50;99.90
13464;DHT22;6804;48.774;9.174;2024-03-22T03:27:39;10.40;99.90
13464;DHT22;6804;48.774;9.174;2024-03-22T03:30:08;10.40;99.90
13464;DHT22;6804;48.774;9.174;2024-03-22T03:32:55;10.30;99.90
13464;DHT22;6804;48.774;9.174;2024-03-22T03:35:24;10.30;99.90
13464;DHT22;6804;48.774;9.174;2024-03-22T03:37:55;10.20;99.90
13464;DHT22;6804;48.774;9.174;2024-03-22T03:40:21;10.20;99.90
13464;DHT22;6804;48.774;9.174;2024-03-22T03:42:50;10.20;99.90
13464;DHT22;6804;48.774;9.174;2024-03-22T03:45:40;10.30;99.90
13464;DHT22;6804;48.774;9.174;2024-03-22T03:48:13;10.40;99.90
13464;DHT22;6804;48.774;9.174;2024-03-22T03:50:39;10.50;99.90
13464;DHT22;6804;48.774;9.174;2024-03-22T03:53:07;10.60;99.90
13464;DHT22;6804;48.774;9.174;2024-03-22T03:55:33;10.70;99.90
13464;DHT22;6804;48.774;9.174;2024-03-22T03:58:00;10.70;99.90
13464;DHT22;6804;48.774;9.174;2024-03-22T04:00:27;10.70;99.90
13464;DHT22;6804;48.774;9.174;2024-03-22T04:03:01;10.80;99.90
13464;DHT22;6804;48.774;9.174;2024-03-22T04:05:31;10.70;99.90
13464;DHT22;6804;48.774;9.174;2024-03-22T04:07:58;10.70;99.90
13464;DHT22;6804;48.774;9.174;2024-03-22T04:10:25;10.80;99.90
13464;DHT22;6804;48.774;9.174;2024-03-22T04:12:54;10.80;99.90
13464;DHT22;6804;48.774;9.174;2024-03-22T04:15:20;10.80;99.90
13464;DHT22;6804;48.774;9.174;2024-03-22T04:17:50;10.80;99.90
13464;DHT22;6804;48.774;9.174;2024-03-22T04:20:20;10.90;99.90
13464;DHT22;6804;48.774;9.174;2024-03-22T04:22:53;10.90;99.90
13464;DHT22;6804;48.774;9.174;2024-03-22T04:25:22;10.90;99.90
13464;DHT22;6804;48.774;9.174;2024-03-22T04:27:50;10.90;99.90
13464;DHT22;6804;48.774;9.174;2024-03-22T04:30:16;10.90;99.90
13464;DHT22;6804;48.774;9.174;2024-03-22T04:32:51;11.00;99.90
13464;DHT22;6804;48.774;9.174;2024-03-22T04:35:22;11.10;99.90
13464;DHT22;6804;48.774;9.174;2024-03-22T04:37:53;11.10;99.90
13464;DHT22;6804;48.774;9.174;2024-03-22T04:40:23;11.10;99.90
13464;DHT22;6804;48.774;9.174;2024-03-22T04:42:51;11.20;99.90
13464;DHT22;6804;48.774;9.174;2024-03-22T04:45:21;11.20;99.90
13464;DHT22;6804;48.774;9.174;2024-03-22T04:47:48;11.20;99.90
13464;DHT22;6804;48.774;9.174;2024-03-22T04:50:15;11.10;99.90
13464;DHT22;6804;48.774;9.174;2024-03-22T04:52:43;11.10;99.90
13464;DHT22;6804;48.774;9.174;2024-03-22T04:55:13;11.10;99.90
13464;DHT22;6804;48.774;9.174;2024-03-22T04:57:40;11.00;99.90
13464;DHT22;6804;48.774;9.174;2024-03-22T05:00:08;11.00;99.90
13464;DHT22;6804;48.774;9.174;2024-03-22T05:02:41;10.90;99.90
13464;DHT22;6804;48.774;9.174;2024-03-22T05:05:08;11.00;99.90
13464;DHT22;6804;48.774;9.174;2024-03-22T05:07:37;11.00;99.90
13464;DHT22;6804;48.774;9.174;2024-03-22T05:10:06;11.10;99.90
13464;DHT22;6804;48.774;9.174;2024-03-22T05:12:33;11.10;99.90
13464;DHT22;6804;48.774;9.174;2024-03-22T05:15:03;11.10;99.90
13464;DHT22;6804;48.774;9.174;2024-03-22T05:17:30;11.10;99.90
13464;DHT22;6804;48.774;9.174;2024-03-22T05:19:58;11.10;99.90
13464;DHT22;6804;48.774;9.174;2024-03-22T05:22:25;11.10;99.90
13464;DHT22;6804;48.774;9.174;2024-03-22T05:24:53;11.20;99.90
13464;DHT22;6804;48.774;9.174;2024-03-22T05:27:22;11.20;99.90
13464;DHT22;6804;48.774;9.174;2024-03-22T05:29:49;11.20;99.90
13464;DHT22;6804;48.774;9.174;2024-03-22T05:32:16;11.20;99.90
13464;DHT22;6804;48.774;9.174;2024-03-22T05:34:43;11.30;99.90
13464;DHT22;6804;48.774;9.174;2024-03-22T05:37:11;11.30;99.90
13464;DHT22;6804;48.774;9.174;2024-03-22T05:39:38;11.30;99.90
13464;DHT22;6804;48.774;9.174;2024-03-22T05:42:06;11.30;99.90
13464;DHT22;6804;48.774;9.174;2024-03-22T05:44:34;11.40;99.90
13464;DHT22;6804;48.774;9.174;2024-03-22T05:47:04;11.40;99.90
13464;DHT22;6804;48.774;9.174;2024-03-22T05:49:34;11.50;99.90
13464;DHT22;6804;48.774;9.174;2024-03-22T05:52:02;11.50;99.90
13464;DHT22;6804;48.774;9.174;2024-03-22T05:54:28;11.50;99.90
13464;DHT22;6804;48.774;9.174;2024-03-22T05:56:57;11.60;99.90
13464;DHT22;6804;48.774;9.174;2024-03-22T05:59:24;11.70;99.90
13464;DHT22;6804;48.774;9.174;2024-03-22T06:01:57;11.60;99.90
13464;DHT22;6804;48.774;9.174;2024-03-22T06:04:25;11.60;99.90
13464;DHT22;6804;48.774;9.174;2024-03-22T06:06:57;11.50;99.90
13464;DHT22;6804;48.774;9.174;2024-03-22T06:09:26;11.40;99.90
13464;DHT22;6804;48.774;9.174;2024-03-22T06:12:06;11.30;99.90
13464;DHT22;6804;48.774;9.174;2024-03-22T06:14:36;11.30;99.90
13464;DHT22;6804;48.774;9.174;2024-03-22T06:17:05;11.30;99.90
13464;DHT22;6804;48.774;9.174;2024-03-22T06:19:36;11.30;99.90
13464;DHT22;6804;48.774;9.174;2024-03-22T06:22:09;11.30;99.90
13464;DHT22;6804;48.774;9.174;2024-03-22T06:24:37;11.40;99.90
13464;DHT22;6804;48.774;9.174;2024-03-22T06:27:07;11.50;99.90
13464;DHT22;6804;48.774;9.174;2024-03-22T06:29:55;11.40;99.90
13464;DHT22;6804;48.774;9.174;2024-03-22T06:32:25;11.50;99.90
13464;DHT22;6804;48.774;9.174;2024-03-22T06:34:54;11.60;99.90
13464;DHT22;6804;48.774;9.174;2024-03-22T06:37:24;11.50;99.90
13464;DHT22;6804;48.774;9.174;2024-03-22T06:39:56;11.60;99.90
13464;DHT22;6804;48.774;9.174;2024-03-22T06:42:29;11.70;99.90
13464;DHT22;6804;48.774;9.174;2024-03-22T06:44:57;11.90;99.90
13464;DHT22;6804;48.774;9.174;2024-03-22T06:47:26;12.00;99.90
13464;DHT22;6804;48.774;9.174;2024-03-22T06:49:59;12.10;99.90
13464;DHT22;6804;48.774;9.174;2024-03-22T06:52:27;12.20;99.90
13464;DHT22;6804;48.774;9.174;2024-03-22T06:54:56;12.20;99.90
13464;DHT22;6804;48.774;9.174;2024-03-22T06:57:24;12.30;99.90
13464;DHT22;6804;48.774;9.174;2024-03-22T06:59:52;12.20;99.90
13464;DHT22;6804;48.774;9.174;2024-03-22T07:02:42;12.20;99.90
13464;DHT22;6804;48.774;9.174;2024-03-22T07:05:09;12.40;99.90
13464;DHT22;6804;48.774;9.174;2024-03-22T07:07:37;12.60;99.90
13464;DHT22;6804;48.774;9.174;2024-03-22T07:10:05;12.80;99.90
13464;DHT22;6804;48.774;9.174;2024-03-22T07:12:51;12.90;99.90
13464;DHT22;6804;48.774;9.174;2024-03-22T07:15:23;13.00;99.90
13464;DHT22;6804;48.774;9.174;2024-03-22T07:17:53;13.00;99.90
13464;DHT22;6804;48.774;9.174;2024-03-22T07:20:20;13.00;99.90
13464;DHT22;6804;48.774;9.174;2024-03-22T07:22:49;13.10;99.90
13464;DHT22;6804;48.774;9.174;2024-03-22T07:25:19;13.20;99.90
13464;DHT22;6804;48.774;9.174;2024-03-22T07:27:47;13.40;99.90
13464;DHT22;6804;48.774;9.174;2024-03-22T07:30:17;13.60;99.90
13464;DHT22;6804;48.774;9.174;2024-03-22T07:32:48;14.00;99.90
13464;DHT22;6804;48.774;9.174;2024-03-22T07:35:17;14.30;99.90
13464;DHT22;6804;48.774;9.174;2024-03-22T07:37:48;14.40;99.90
13464;DHT22;6804;48.774;9.174;2024-03-22T07:40:18;14.40;99.90
13464;DHT22;6804;48.774;9.174;2024-03-22T07:42:48;14.40;99.90
13464;DHT22;6804;48.774;9.174;2024-03-22T07:45:18;14.50;99.90
13464;DHT22;6804;48.774;9.174;2024-03-22T07:47:48;14.50;99.90
13464;DHT22;6804;48.774;9.174;2024-03-22T07:50:19;14.60;99.90
13464;DHT22;6804;48.774;9.174;2024-03-22T07:52:48;14.90;99.90
13464;DHT22;6804;48.774;9.174;2024-03-22T07:55:17;15.20;99.90
13464;DHT22;6804;48.774;9.174;2024-03-22T07:57:46;15.60;99.90
13464;DHT22;6804;48.774;9.174;2024-03-22T08:00:14;16.00;99.90
13464;DHT22;6804;48.774;9.174;2024-03-22T08:02:43;16.40;99.90
13464;DHT22;6804;48.774;9.174;2024-03-22T08:05:18;16.40;99.90
13464;DHT22;6804;48.774;9.174;2024-03-22T08:07:49;16.60;99.90
13464;DHT22;6804;48.774;9.174;2024-03-22T08:10:20;16.70;99.90
13464;DHT22;6804;48.774;9.174;2024-03-22T08:12:48;16.80;99.90
13464;DHT22;6804;48.774;9.174;2024-03-22T08:15:17;16.30;99.90
13464;DHT22;6804;48.774;9.174;2024-03-22T08:17:44;15.90;99.90
13464;DHT22;6804;48.774;9.174;2024-03-22T08:20:36;15.90;99.90
13464;DHT22;6804;48.774;9.174;2024-03-22T08:23:08;16.10;99.90
13464;DHT22;6804;48.774;9.174;2024-03-22T08:25:57;16.30;99.90
13464;DHT22;6804;48.774;9.174;2024-03-22T08:28:26;16.40;99.90
13464;DHT22;6804;48.774;9.174;2024-03-22T08:30:57;16.60;99.90
13464;DHT22;6804;48.774;9.174;2024-03-22T08:33:30;16.80;99.90
13464;DHT22;6804;48.774;9.174;2024-03-22T08:36:00;17.00;99.90
13464;DHT22;6804;48.774;9.174;2024-03-22T08:41:43;17.70;99.90
13464;DHT22;6804;48.774;9.174;2024-03-22T08:44:30;18.10;99.90
13464;DHT22;6804;48.774;9.174;2024-03-22T08:47:01;18.30;99.90
13464;DHT22;6804;48.774;9.174;2024-03-22T08:49:31;18.40;99.90
13464;DHT22;6804;48.774;9.174;2024-03-22T08:52:02;18.50;99.90
13464;DHT22;6804;48.774;9.174;2024-03-22T08:54:29;18.50;99.90
13464;DHT22;6804;48.774;9.174;2024-03-22T08:57:00;18.40;99.90
13464;DHT22;6804;48.774;9.174;2024-03-22T08:59:28;18.40;99.90
13464;DHT22;6804;48.774;9.174;2024-03-22T09:01:57;18.30;99.90
13464;DHT22;6804;48.774;9.174;2024-03-22T09:04:28;18.30;99.90
13464;DHT22;6804;48.774;9.174;2024-03-22T09:06:56;18.20;99.90
13464;DHT22;6804;48.774;9.174;2024-03-22T09:09:28;18.10;99.90
13464;DHT22;6804;48.774;9.174;2024-03-22T09:11:59;18.00;99.90
13464;DHT22;6804;48.774;9.174;2024-03-22T09:14:28;18.00;99.90
13464;DHT22;6804;48.774;9.174;2024-03-22T09:16:59;18.00;99.90
13464;DHT22;6804;48.774;9.174;2024-03-22T09:19:25;18.10;99.90
13464;DHT22;6804;48.774;9.174;2024-03-22T09:22:02;18.20;99.90
13464;DHT22;6804;48.774;9.174;2024-03-22T09:24:34;18.40;99.90
13464;DHT22;6804;48.774;9.174;2024-03-22T09:27:02;18.60;99.90
13464;DHT22;6804;48.774;9.174;2024-03-22T09:29:35;18.70;99.90
13464;DHT22;6804;48.774;9.174;2024-03-22T09:32:11;18.80;99.90
13464;DHT22;6804;48.774;9.174;2024-03-22T09:34:41;19.00;99.00
13464;DHT22;6804;48.774;9.174;2024-03-22T09:37:11;19.20;98.30
13464;DHT22;6804;48.774;9.174;2024-03-22T09:39:43;19.30;97.70
13464;DHT22;6804;48.774;9.174;2024-03-22T09:42:15;19.40;97.90
13464;DHT22;6804;48.774;9.174;2024-03-22T09:44:49;19.50;97.30
13464;DHT22;6804;48.774;9.174;2024-03-22T09:47:21;19.80;96.90
13464;DHT22;6804;48.774;9.174;2024-03-22T09:49:48;19.60;95.30
13464;DHT22;6804;48.774;9.174;2024-03-22T09:52:19;19.50;96.70
13464;DHT22;6804;48.774;9.174;2024-03-22T09:54:52;19.70;96.30
13464;DHT22;6804;48.774;9.174;2024-03-22T09:57:38;19.90;95.20
13464;DHT22;6804;48.774;9.174;2024-03-22T10:00:08;20.00;95.00
13464;DHT22;6804;48.774;9.174;2024-03-22T10:02:36;20.10;94.40
13464;DHT22;6804;48.774;9.174;2024-03-22T10:05:05;20.20;94.30
13464;DHT22;6804;48.774;9.174;2024-03-22T10:07:35;20.40;93.90
13464;DHT22;6804;48.774;9.174;2024-03-22T10:10:04;20.60;93.60
13464;DHT22;6804;48.774;9.174;2024-03-22T10:12:33;20.50;93.10
13464;DHT22;6804;48.774;9.174;2024-03-22T10:15:01;20.30;92.40
13464;DHT22;6804;48.774;9.174;2024-03-22T10:17:47;19.80;93.00
13464;DHT22;6804;48.774;9.174;2024-03-22T10:20:44;19.40;93.50
13464;DHT22;6804;48.774;9.174;2024-03-22T10:23:13;19.50;94.00
13464;DHT22;6804;48.774;9.174;2024-03-22T10:25:42;19.50;94.60
13464;DHT22;6804;48.774;9.174;2024-03-22T10:28:14;19.70;94.50
13464;DHT22;6804;48.774;9.174;2024-03-22T10:30:45;19.80;94.00
13464;DHT22;6804;48.774;9.174;2024-03-22T10:33:16;19.90;93.70
13464;DHT22;6804;48.774;9.174;2024-03-22T10:35:54;20.00;94.00
13464;DHT22;6804;48.774;9.174;2024-03-22T10:38:24;20.10;93.30
13464;DHT22;6804;48.774;9.174;2024-03-22T10:40:52;20.10;93.50
13464;DHT22;6804;48.774;9.174;2024-03-22T10:43:21;20.20;93.40
13464;DHT22;6804;48.774;9.174;2024-03-22T10:45:50;20.20;93.50
13464;DHT22;6804;48.774;9.174;2024-03-22T10:48:21;20.20;93.30
13464;DHT22;6804;48.774;9.174;2024-03-22T10:50:53;20.10;93.00
13464;DHT22;6804;48.774;9.174;2024-03-22T10:53:25;20.30;93.50
13464;DHT22;6804;48.774;9.174;2024-03-22T10:55:58;20.30;93.20
13464;DHT22;6804;48.774;9.174;2024-03-22T10:58:28;20.50;92.30
13464;DHT22;6804;48.774;9.174;2024-03-22T11:00:56;20.50;91.90
13464;DHT22;6804;48.774;9.174;2024-03-22T11:03:28;20.40;92.50
13464;DHT22;6804;48.774;9.174;2024-03-22T11:06:01;20.50;92.60
13464;DHT22;6804;48.774;9.174;2024-03-22T11:08:39;20.60;92.40
13464;DHT22;6804;48.774;9.174;2024-03-22T11:11:13;20.50;91.30
13464;DHT22;6804;48.774;9.174;2024-03-22T11:13:42;20.40;92.40
13464;DHT22;6804;48.774;9.174;2024-03-22T11:16:13;20.50;92.00
13464;DHT22;6804;48.774;9.174;2024-03-22T11:18:44;20.30;91.30
13464;DHT22;6804;48.774;9.174;2024-03-22T11:21:16;20.20;92.40
13464;DHT22;6804;48.774;9.174;2024-03-22T11:23:48;20.10;92.70
13464;DHT22;6804;48.774;9.174;2024-03-22T11:26:16;20.30;93.30
13464;DHT22;6804;48.774;9.174;2024-03-22T11:28:45;20.50;93.20
13464;DHT22;6804;48.774;9.174;2024-03-22T11:31:14;20.60;93.20
13464;DHT22;6804;48.774;9.174;2024-03-22T11:33:44;20.70;93.00
13464;DHT22;6804;48.774;9.174;2024-03-22T11:36:16;20.80;92.40
13464;DHT22;6804;48.774;9.174;2024-03-22T11:38:44;20.80;91.60
13464;DHT22;6804;48.774;9.174;2024-03-22T11:41:11;20.90;92.10
13464;DHT22;6804;48.774;9.174;2024-03-22T11:43:45;21.00;92.00
13464;DHT22;6804;48.774;9.174;2024-03-22T11:46:14;21.20;91.50
13464;DHT22;6804;48.774;9.174;2024-03-22T11:48:45;21.30;91.40
13464;DHT22;6804;48.774;9.174;2024-03-22T11:51:23;21.40;91.80
13464;DHT22;6804;48.774;9.174;2024-03-22T11:53:54;21.40;91.20
13464;DHT22;6804;48.774;9.174;2024-03-22T11:56:25;21.40;91.40
13464;DHT22;6804;48.774;9.174;2024-03-22T11:58:59;21.40;91.80
13464;DHT22;6804;48.774;9.174;2024-03-22T12:01:27;21.30;91.70
13464;DHT22;6804;48.774;9.174;2024-03-22T12:03:56;21.20;91.80
13464;DHT22;6804;48.774;9.174;2024-03-22T12:06:27;21.20;91.70
13464;DHT22;6804;48.774;9.174;2024-03-22T12:08:58;21.30;91.80
13464;DHT22;6804;48.774;9.174;2024-03-22T12:11:25;21.30;91.50
13464;DHT22;6804;48.774;9.174;2024-03-22T12:13:56;21.40;90.70
13464;DHT22;6804;48.774;9.174;2024-03-22T12:16:25;21.40;90.40
13464;DHT22;6804;48.774;9.174;2024-03-22T12:18:57;21.50;90.30
13464;DHT22;6804;48.774;9.174;2024-03-22T12:21:28;21.50;90.10
13464;DHT22;6804;48.774;9.174;2024-03-22T12:23:57;21.50;89.60
13464;DHT22;6804;48.774;9.174;2024-03-22T12:26:25;21.40;90.50
13464;DHT22;6804;48.774;9.174;2024-03-22T12:28:58;21.50;91.30
13464;DHT22;6804;48.774;9.174;2024-03-22T12:31:25;21.40;91.30
13464;DHT22;6804;48.774;9.174;2024-03-22T12:33:54;21.20;90.50
13464;DHT22;6804;48.774;9.174;2024-03-22T12:36:22;20.80;90.50
13464;DHT22;6804;48.774;9.174;2024-03-22T12:39:20;20.70;90.10
13464;DHT22;6804;48.774;9.174;2024-03-22T12:41:51;20.50;90.80
13464;DHT22;6804;48.774;9.174;2024-03-22T12:44:25;20.50;91.10
13464;DHT22;6804;48.774;9.174;2024-03-22T12:46:55;20.70;91.00
13464;DHT22;6804;48.774;9.174;2024-03-22T12:49:25;20.80;90.40
13464;DHT22;6804;48.774;9.174;2024-03-22T12:51:58;21.00;89.80
13464;DHT22;6804;48.774;9.174;2024-03-22T12:54:30;21.10;87.30
13464;DHT22;6804;48.774;9.174;2024-03-22T12:56:57;21.10;86.80
13464;DHT22;6804;48.774;9.174;2024-03-22T12:59:26;21.20;86.80
13464;DHT22;6804;48.774;9.174;2024-03-22T13:02:00;21.20;87.40
13464;DHT22;6804;48.774;9.174;2024-03-22T13:04:28;21.30;87.80
13464;DHT22;6804;48.774;9.174;2024-03-22T13:07:14;21.30;87.50
13464;DHT22;6804;48.774;9.174;2024-03-22T13:09:50;21.30;87.50
13464;DHT22;6804;48.774;9.174;2024-03-22T13:12:18;21.30;87.80
13464;DHT22;6804;48.774;9.174;2024-03-22T13:14:48;21.40;87.70
13464;DHT22;6804;48.774;9.174;2024-03-22T13:17:22;21.40;87.10
13464;DHT22;6804;48.774;9.174;2024-03-22T13:19:50;21.40;86.40
13464;DHT22;6804;48.774;9.174;2024-03-22T13:22:17;21.40;87.10
13464;DHT22;6804;48.774;9.174;2024-03-22T13:24:49;21.30;86.30
13464;DHT22;6804;48.774;9.174;2024-03-22T13:27:17;21.20;87.80
13464;DHT22;6804;48.774;9.174;2024-03-22T13:29:49;21.20;87.10
13464;DHT22;6804;48.774;9.174;2024-03-22T13:32:19;21.20;88.80
13464;DHT22;6804;48.774;9.174;2024-03-22T13:34:49;21.20;89.00
13464;DHT22;6804;48.774;9.174;2024-03-22T13:37:17;21.30;88.70
13464;DHT22;6804;48.774;9.174;2024-03-22T13:39:50;21.30;89.20
13464;DHT22;6804;48.774;9.174;2024-03-22T13:42:20;21.40;89.60
13464;DHT22;6804;48.774;9.174;2024-03-22T13:44:48;21.40;89.40
13464;DHT22;6804;48.774;9.174;2024-03-22T13:47:17;21.40;88.70
13464;DHT22;6804;48.774;9.174;2024-03-22T13:49:53;21.40;89.60
13464;DHT22;6804;48.774;9.174;2024-03-22T13:52:21;21.40;88.00
13464;DHT22;6804;48.774;9.174;2024-03-22T13:54:53;21.40;88.80
13464;DHT22;6804;48.774;9.174;2024-03-22T13:57:20;21.40;88.90
13464;DHT22;6804;48.774;9.174;2024-03-22T14:00:09;21.50;89.80
13464;DHT22;6804;48.774;9.174;2024-03-22T14:02:42;21.50;90.00
13464;DHT22;6804;48.774;9.174;2024-03-22T14:05:13;21.50;90.00
13464;DHT22;6804;48.774;9.174;2024-03-22T14:07:40;21.50;90.00
13464;DHT22;6804;48.774;9.174;2024-03-22T14:10:10;21.30;90.20
13464;DHT22;6804;48.774;9.174;2024-03-22T14:12:41;21.30;90.40
13464;DHT22;6804;48.774;9.174;2024-03-22T14:15:10;21.20;90.70
13464;DHT22;6804;48.774;9.174;2024-03-22T14:17:39;21.00;90.80
13464;DHT22;6804;48.774;9.174;2024-03-22T14:20:09;20.90;91.10
13464;DHT22;6804;48.774;9.174;2024-03-22T14:22:39;20.80;91.40
13464;DHT22;6804;48.774;9.174;2024-03-22T14:25:10;20.70;91.40
13464;DHT22;6804;48.774;9.174;2024-03-22T14:27:38;20.70;91.80
13464;DHT22;6804;48.774;9.174;2024-03-22T14:30:10;20.60;91.90
13464;DHT22;6804;48.774;9.174;2024-03-22T14:32:42;20.50;91.80
13464;DHT22;6804;48.774;9.174;2024-03-22T14:35:10;20.40;92.00
13464;DHT22;6804;48.774;9.174;2024-03-22T14:37:40;20.40;92.10
13464;DHT22;6804;48.774;9.174;2024-03-22T14:40:11;20.30;92.00
13464;DHT22;6804;48.774;9.174;2024-03-22T14:42:41;20.30;91.90
13464;DHT22;6804;48.774;9.174;2024-03-22T14:45:10;20.30;91.30
13464;DHT22;6804;48.774;9.174;2024-03-22T14:47:42;20.20;91.00
13464;DHT22;6804;48.774;9.174;2024-03-22T14:50:10;20.30;90.80
13464;DHT22;6804;48.774;9.174;2024-03-22T14:52:42;20.30;90.80
13464;DHT22;6804;48.774;9.174;2024-03-22T14:55:14;20.30;90.20
13464;DHT22;6804;48.774;9.174;2024-03-22T14:57:41;20.30;88.40
13464;DHT22;6804;48.774;9.174;2024-03-22T15:00:12;20.20;87.30
13464;DHT22;6804;48.774;9.174;2024-03-22T15:02:40;20.20;86.60
13464;DHT22;6804;48.774;9.174;2024-03-22T15:05:11;20.10;86.90
13464;DHT22;6804;48.774;9.174;2024-03-22T15:07:39;20.00;86.60
13464;DHT22;6804;48.774;9.174;2024-03-22T15:10:09;19.90;86.20
13464;DHT22;6804;48.774;9.174;2024-03-22T15:12:38;19.70;85.40
13464;DHT22;6804;48.774;9.174;2024-03-22T15:15:10;19.60;86.30
13464;DHT22;6804;48.774;9.174;2024-03-22T15:17:55;19.50;87.60
13464;DHT22;6804;48.774;9.174;2024-03-22T15:20:22;19.60;86.80
13464;DHT22;6804;48.774;9.174;2024-03-22T15:22:50;19.60;86.80
13464;DHT22;6804;48.774;9.174;2024-03-22T15:25:22;19.60;86.30
13464;DHT22;6804;48.774;9.174;2024-03-22T15:27:53;19.50;86.90
13464;DHT22;6804;48.774;9.174;2024-03-22T15:30:22;19.60;87.30
13464;DHT22;6804;48.774;9.174;2024-03-22T15:33:10;19.50;87.10
13464;DHT22;6804;48.774;9.174;2024-03-22T15:35:39;19.50;86.80
13464;DHT22;6804;48.774;9.174;2024-03-22T15:38:12;19.60;87.50
13464;DHT22;6804;48.774;9.174;2024-03-22T15:40:40;19.50;86.60
13464;DHT22;6804;48.774;9.174;2024-03-22T15:43:11;19.40;85.80
13464;DHT22;6804;48.774;9.174;2024-03-22T15:45:40;19.40;87.20
13464;DHT22;6804;48.774;9.174;2024-03-22T15:48:10;19.40;87.50
13464;DHT22;6804;48.774;9.174;2024-03-22T15:50:42;19.40;87.70
13464;DHT22;6804;48.774;9.174;2024-03-22T15:53:12;19.40;87.40
13464;DHT22;6804;48.774;9.174;2024-03-22T15:55:42;19.40;87.90
13464;DHT22;6804;48.774;9.174;2024-03-22T15:58:15;19.30;88.20
13464;DHT22;6804;48.774;9.174;2024-03-22T16:00:45;19.30;88.00
13464;DHT22;6804;48.774;9.174;2024-03-22T16:03:31;19.30;88.20
13464;DHT22;6804;48.774;9.174;2024-03-22T16:06:04;19.30;88.30
13464;DHT22;6804;48.774;9.174;2024-03-22T16:08:34;19.20;89.40